Time;durP1;ratioP1;P1;durP2;ratioP2;P2;SDS_P1;SDS_P2;PMS_P1;PMS_P2;Temp;Humidity;BMP_temperature;BMP_pressure;BME280_temperature;BME280_humidity;BME280_pressure;Samples;Min_cycle;Max_cycle;Signal;HPM_P1;HPM_P2
2021/08/31 00:01:03;;;;;;;1.33;0.80;;;18.50;69.30;;;;;;5016825;28;20033;-78
2021/08/31 00:03:29;;;;;;;2.88;1.17;;;18.50;69.50;;;;;;5040730;28;20486;-76
2021/08/31 00:05:55;;;;;;;1.77;1.05;;;18.50;69.40;;;;;;5053074;28;20044;-75
2021/08/31 00:08:22;;;;;;;1.33;1.15;;;18.60;69.40;;;;;;5054174;28;20111;-76
2021/08/31 00:10:48;;;;;;;1.17;1.08;;;18.50;69.20;;;;;;5053641;28;20052;-76
2021/08/31 00:13:14;;;;;;;2.22;0.93;;;18.60;69.20;;;;;;5036327;28;20071;-76
2021/08/31 00:15:40;;;;;;;1.13;1.02;;;18.50;69.30;;;;;;5054339;28;20025;-76
2021/08/31 00:18:06;;;;;;;1.20;1.10;;;18.60;69.30;;;;;;5053830;28;20025;-76
2021/08/31 00:20:31;;;;;;;1.40;1.27;;;18.60;69.30;;;;;;5054203;28;20125;-76
2021/08/31 00:22:57;;;;;;;2.85;1.10;;;18.60;69.40;;;;;;5054102;28;20021;-77
2021/08/31 00:25:23;;;;;;;1.17;1.08;;;18.60;69.40;;;;;;5036253;28;20028;-76
2021/08/31 00:27:49;;;;;;;1.70;1.23;;;18.60;69.50;;;;;;5053941;28;20367;-76
2021/08/31 00:30:15;;;;;;;4.28;2.28;;;18.60;69.50;;;;;;5052570;28;20056;-75
2021/08/31 00:32:41;;;;;;;1.80;1.50;;;18.60;69.40;;;;;;5053952;28;20447;-75
2021/08/31 00:35:07;;;;;;;2.03;1.60;;;18.60;69.40;;;;;;5053927;28;20025;-77
2021/08/31 00:37:33;;;;;;;2.90;1.70;;;18.60;69.40;;;;;;5053429;28;20524;-76
2021/08/31 00:39:59;;;;;;;1.35;1.25;;;18.60;69.30;;;;;;5036025;28;20021;-76
2021/08/31 00:42:25;;;;;;;2.25;1.60;;;18.60;69.30;;;;;;5035838;28;20025;-76
2021/08/31 00:44:50;;;;;;;2.10;1.60;;;18.60;69.30;;;;;;5053796;28;20025;-78
2021/08/31 00:47:16;;;;;;;1.67;1.45;;;18.60;69.40;;;;;;5035474;28;20467;-77
2021/08/31 00:49:42;;;;;;;2.65;1.38;;;18.60;69.30;;;;;;5052442;28;20466;-76
2021/08/31 00:52:08;;;;;;;2.30;1.60;;;18.60;69.10;;;;;;5053601;28;20096;-76
2021/08/31 00:54:36;;;;;;;2.08;1.48;;;18.60;69.10;;;;;;5053422;28;20035;-76
2021/08/31 00:57:03;;;;;;;1.95;1.60;;;18.60;68.90;;;;;;5045533;28;20022;-77
2021/08/31 00:59:30;;;;;;;1.63;1.48;;;18.60;69.00;;;;;;5033647;28;20014;-77
2021/08/31 01:01:57;;;;;;;2.03;1.20;;;18.60;69.00;;;;;;5053288;28;20020;-77
2021/08/31 01:04:23;;;;;;;5.65;1.80;;;18.50;69.00;;;;;;5053199;28;20532;-77
2021/08/31 01:06:52;;;;;;;2.58;1.30;;;18.60;69.10;;;;;;5053173;28;20054;-76
2021/08/31 01:09:19;;;;;;;2.25;1.42;;;18.60;69.20;;;;;;5053093;28;20046;-77
2021/08/31 01:11:47;;;;;;;1.52;1.42;;;18.50;69.30;;;;;;5035205;28;20499;-78
2021/08/31 01:14:12;;;;;;;3.13;1.45;;;18.50;70.10;;;;;;5052678;28;20037;-78
2021/08/31 01:16:38;;;;;;;2.35;1.50;;;18.50;69.30;;;;;;5053030;28;20075;-78
2021/08/31 01:19:05;;;;;;;3.17;1.60;;;18.60;69.60;;;;;;5052989;28;20025;-78
2021/08/31 01:21:32;;;;;;;1.80;1.45;;;18.60;69.50;;;;;;5052181;28;20048;-75
2021/08/31 01:23:58;;;;;;;2.28;1.45;;;18.60;69.60;;;;;;5052537;28;20447;-76
2021/08/31 01:26:25;;;;;;;1.90;1.67;;;18.60;69.60;;;;;;5052424;28;20103;-76
2021/08/31 01:28:51;;;;;;;1.60;1.50;;;18.60;69.60;;;;;;5052595;28;20112;-75
2021/08/31 01:31:17;;;;;;;2.05;1.77;;;18.60;69.30;;;;;;5052716;28;20112;-76
2021/08/31 01:33:44;;;;;;;1.48;1.25;;;18.60;69.40;;;;;;5051247;28;20124;-76
2021/08/31 01:36:24;;;;;;;1.98;1.67;;;18.60;69.50;;;;;;5052559;28;20076;-77
2021/08/31 01:38:57;;;;;;;2.00;1.48;;;18.60;69.60;;;;;;5052260;28;20025;-77
2021/08/31 01:41:25;;;;;;;2.40;1.55;;;18.60;69.50;;;;;;5052466;28;20031;-77
2021/08/31 01:43:51;;;;;;;2.28;1.60;;;18.60;69.40;;;;;;5052102;28;20389;-77
2021/08/31 01:46:17;;;;;;;2.83;1.98;;;18.60;69.40;;;;;;5051080;28;20474;-77
2021/08/31 01:48:43;;;;;;;2.28;1.60;;;18.60;69.40;;;;;;5052319;28;20029;-77
2021/08/31 01:51:09;;;;;;;2.65;1.52;;;18.60;69.40;;;;;;5052001;28;20079;-77
2021/08/31 01:53:36;;;;;;;3.42;2.17;;;18.60;69.40;;;;;;5050811;28;20044;-77
2021/08/31 01:56:02;;;;;;;3.50;1.90;;;18.60;69.30;;;;;;5052295;28;20049;-76
2021/08/31 01:58:28;;;;;;;2.90;1.90;;;18.60;69.30;;;;;;5032366;28;20018;-76
2021/08/31 02:00:54;;;;;;;2.03;1.83;;;18.60;69.40;;;;;;5032215;28;20494;-76
2021/08/31 02:03:20;;;;;;;3.30;2.17;;;18.60;69.30;;;;;;5041324;28;20036;-76
2021/08/31 02:05:46;;;;;;;2.13;1.85;;;18.60;69.10;;;;;;5050694;28;20059;-76
2021/08/31 02:08:12;;;;;;;2.28;1.98;;;18.50;69.20;;;;;;5050624;28;20516;-76
2021/08/31 02:10:38;;;;;;;3.80;2.22;;;18.60;69.20;;;;;;5051934;28;20024;-77
2021/08/31 02:13:03;;;;;;;2.40;2.20;;;18.50;69.00;;;;;;5051687;28;20041;-77
2021/08/31 02:15:30;;;;;;;3.55;2.58;;;18.50;69.00;;;;;;5051692;28;20433;-77
2021/08/31 02:17:55;;;;;;;7.03;5.85;;;18.50;69.20;;;;;;5050859;28;20469;-76
2021/08/31 02:20:21;;;;;;;3.67;3.10;;;18.50;69.20;;;;;;5051660;28;20045;-76
2021/08/31 02:22:47;;;;;;;2.53;2.33;;;18.50;69.40;;;;;;5051898;28;20021;-76
2021/08/31 02:25:13;;;;;;;2.33;2.13;;;18.40;69.40;;;;;;5051810;28;20032;-76
2021/08/31 02:27:39;;;;;;;2.40;2.20;;;18.40;69.50;;;;;;5051408;28;20494;-77
2021/08/31 02:30:06;;;;;;;3.38;2.53;;;18.40;69.70;;;;;;5051558;28;20091;-76
2021/08/31 02:32:32;;;;;;;2.95;2.47;;;18.40;69.80;;;;;;5052159;28;20025;-76
2021/08/31 02:34:58;;;;;;;6.03;2.42;;;18.40;69.80;;;;;;5037703;28;20021;-76
2021/08/31 02:37:24;;;;;;;3.53;2.63;;;18.50;69.80;;;;;;5038812;28;20383;-77
2021/08/31 02:39:50;;;;;;;2.30;2.10;;;18.50;69.50;;;;;;5053651;28;20475;-76
2021/08/31 02:42:16;;;;;;;3.58;2.42;;;18.50;69.50;;;;;;5055845;28;20036;-76
2021/08/31 02:44:42;;;;;;;4.63;2.47;;;18.50;69.50;;;;;;5055681;28;20035;-76
2021/08/31 02:47:08;;;;;;;3.72;2.80;;;18.50;69.50;;;;;;5055504;28;20039;-76
2021/08/31 02:49:34;;;;;;;6.00;2.58;;;18.50;69.50;;;;;;5055955;28;20099;-75
2021/08/31 02:52:03;;;;;;;3.05;2.75;;;18.50;69.40;;;;;;5055259;28;20121;-76
2021/08/31 02:54:28;;;;;;;3.30;2.67;;;18.50;69.50;;;;;;5055324;28;20535;-76
2021/08/31 02:56:54;;;;;;;2.65;2.45;;;18.60;69.60;;;;;;5048583;28;20104;-75
2021/08/31 02:59:21;;;;;;;2.97;2.33;;;18.50;69.80;;;;;;5035482;28;20048;-76
2021/08/31 03:02:05;;;;;;;4.00;2.28;;;18.50;69.80;;;;;;5040345;28;20036;-76
2021/08/31 03:04:42;;;;;;;;;;;18.50;70.60;;;;;;5055892;28;20099;-76
2021/08/31 03:07:11;;;;;;;3.20;2.63;;;18.60;69.40;;;;;;5055319;28;19908;-76
2021/08/31 03:09:37;;;;;;;5.28;2.85;;;18.60;69.40;;;;;;5055087;28;20021;-75
2021/08/31 03:12:04;;;;;;;8.65;2.35;;;18.60;69.30;;;;;;5055014;28;20033;-75
2021/08/31 03:14:30;;;;;;;3.22;2.88;;;18.60;69.30;;;;;;5054824;28;20386;-76
2021/08/31 03:16:56;;;;;;;2.90;2.58;;;18.60;69.30;;;;;;5055169;28;20092;-75
2021/08/31 03:19:26;;;;;;;3.53;2.60;;;18.60;69.30;;;;;;5055042;28;20036;-75
2021/08/31 03:21:54;;;;;;;3.33;3.03;;;18.50;69.00;;;;;;5055165;28;20025;-75
2021/08/31 03:24:20;;;;;;;10.23;3.10;;;18.50;68.80;;;;;;5036708;28;20036;-75
2021/08/31 03:26:46;;;;;;;2.97;2.67;;;18.50;68.50;;;;;;5054953;28;20036;-75
2021/08/31 03:29:12;;;;;;;4.03;3.40;;;18.40;68.50;;;;;;5054706;28;20101;-75
2021/08/31 03:31:38;;;;;;;4.10;3.03;;;18.30;68.60;;;;;;5054764;28;20100;-75
2021/08/31 03:34:05;;;;;;;3.67;2.58;;;18.30;68.90;;;;;;5052238;28;20060;-75
2021/08/31 03:36:31;;;;;;;4.38;3.50;;;18.20;69.10;;;;;;5051574;28;20029;-75
2021/08/31 03:38:57;;;;;;;4.30;3.10;;;18.20;69.20;;;;;;5054358;28;20040;-75
2021/08/31 03:41:23;;;;;;;5.85;3.53;;;18.20;69.30;;;;;;5053327;28;20025;-75
2021/08/31 03:43:49;;;;;;;6.55;3.25;;;18.20;69.50;;;;;;5054672;28;20036;-75
2021/08/31 03:46:14;;;;;;;3.47;2.85;;;18.20;70.40;;;;;;5052882;28;20367;-75
2021/08/31 03:48:40;;;;;;;5.03;3.10;;;18.20;69.70;;;;;;5051049;28;20123;-75
2021/08/31 03:51:06;;;;;;;3.38;2.63;;;18.20;69.80;;;;;;5036469;28;20044;-75
2021/08/31 03:53:32;;;;;;;6.85;3.30;;;18.20;70.00;;;;;;5053901;28;20033;-75
2021/08/31 03:55:58;;;;;;;5.55;2.72;;;18.20;69.90;;;;;;5053382;28;20044;-75
2021/08/31 03:58:24;;;;;;;4.97;4.15;;;18.30;70.20;;;;;;5039118;28;20375;-75
2021/08/31 04:00:50;;;;;;;5.03;4.38;;;18.30;70.10;;;;;;5053853;28;20032;-75
2021/08/31 04:03:16;;;;;;;5.05;4.03;;;18.30;69.90;;;;;;5053919;28;20029;-75
2021/08/31 04:05:42;;;;;;;4.82;3.75;;;18.30;70.00;;;;;;5054015;28;20429;-75
2021/08/31 04:08:07;;;;;;;4.43;3.60;;;18.30;70.00;;;;;;5053717;28;20056;-76
2021/08/31 04:10:34;;;;;;;3.80;3.38;;;18.40;69.90;;;;;;5053943;28;20075;-75
2021/08/31 04:12:59;;;;;;;4.07;3.13;;;18.40;70.00;;;;;;5054039;28;20028;-75
2021/08/31 04:15:25;;;;;;;4.05;3.17;;;18.40;69.80;;;;;;5053868;28;20021;-75
2021/08/31 04:17:51;;;;;;;5.75;4.40;;;18.40;69.80;;;;;;5053814;28;20027;-75
2021/08/31 04:20:17;;;;;;;5.88;4.85;;;18.40;69.80;;;;;;5053838;28;20025;-75
2021/08/31 04:22:44;;;;;;;5.63;4.55;;;18.40;69.90;;;;;;5035958;28;20021;-75
2021/08/31 04:25:10;;;;;;;5.10;4.30;;;18.40;69.80;;;;;;5053965;28;20013;-75
2021/08/31 04:27:36;;;;;;;6.47;4.47;;;18.40;69.90;;;;;;5053347;28;20029;-75
2021/08/31 04:30:03;;;;;;;6.95;4.88;;;18.40;69.90;;;;;;5053138;28;20049;-75
2021/08/31 04:32:29;;;;;;;8.07;4.32;;;18.40;69.80;;;;;;5051421;28;20116;-75
2021/08/31 04:34:58;;;;;;;5.13;4.28;;;18.30;69.50;;;;;;5053426;28;20100;-75
2021/08/31 04:37:23;;;;;;;5.20;4.30;;;18.30;69.40;;;;;;5053453;28;20044;-75
2021/08/31 04:39:49;;;;;;;6.28;3.80;;;18.30;69.70;;;;;;5053487;28;20524;-75
2021/08/31 04:42:15;;;;;;;5.57;4.78;;;18.30;69.80;;;;;;5053446;28;20037;-75
2021/08/31 04:44:41;;;;;;;6.90;4.72;;;18.30;70.00;;;;;;5053434;28;20520;-75
2021/08/31 04:47:06;;;;;;;7.93;4.25;;;18.30;70.10;;;;;;5053424;28;20548;-75
2021/08/31 04:49:32;;;;;;;6.50;4.97;;;18.30;70.30;;;;;;5053069;28;20414;-74
2021/08/31 04:51:58;;;;;;;8.90;5.00;;;18.30;70.40;;;;;;5052935;28;20074;-75
2021/08/31 04:54:24;;;;;;;7.25;4.95;;;18.30;70.40;;;;;;5053121;28;20028;-75
2021/08/31 04:56:50;;;;;;;12.63;5.32;;;18.30;70.50;;;;;;5046350;28;20033;-75
2021/08/31 04:59:16;;;;;;;11.90;5.10;;;18.40;70.50;;;;;;5033193;28;20028;-75
2021/08/31 05:01:42;;;;;;;7.07;5.13;;;18.40;70.70;;;;;;5033055;28;20050;-75
2021/08/31 05:04:08;;;;;;;8.75;4.38;;;18.40;70.50;;;;;;5045577;28;20110;-75
2021/08/31 05:06:34;;;;;;;10.32;5.70;;;18.50;70.70;;;;;;5052497;28;20021;-75
2021/08/31 05:09:03;;;;;;;8.65;5.28;;;18.50;70.60;;;;;;5052551;28;20146;-75
2021/08/31 05:11:29;;;;;;;7.68;5.25;;;18.60;70.70;;;;;;5052960;28;20029;-74
2021/08/31 05:13:55;;;;;;;9.38;6.10;;;18.60;70.60;;;;;;5052696;28;20390;-75
2021/08/31 05:16:20;;;;;;;7.15;5.28;;;18.70;70.20;;;;;;5052625;28;20117;-74
2021/08/31 05:18:46;;;;;;;12.82;4.85;;;18.70;70.20;;;;;;5052481;28;20056;-74
2021/08/31 05:21:12;;;;;;;7.70;5.20;;;18.70;70.20;;;;;;5051496;28;20386;-74
2021/08/31 05:23:38;;;;;;;7.85;5.85;;;18.70;70.10;;;;;;5052788;28;20067;-75
2021/08/31 05:26:04;;;;;;;14.20;7.50;;;18.80;70.30;;;;;;5052446;28;20363;-75
2021/08/31 05:28:30;;;;;;;7.78;5.35;;;18.80;70.10;;;;;;5052532;28;20025;-74
2021/08/31 05:30:56;;;;;;;12.45;8.60;;;18.80;70.10;;;;;;5051854;28;20044;-74
2021/08/31 05:33:22;;;;;;;8.35;5.72;;;18.90;70.10;;;;;;5052199;28;20027;-74
2021/08/31 05:35:48;;;;;;;7.53;5.90;;;18.90;70.00;;;;;;5052347;28;20028;-74
2021/08/31 05:38:13;;;;;;;6.72;5.43;;;19.00;70.00;;;;;;5052302;28;20075;-74
2021/08/31 05:40:39;;;;;;;8.88;5.70;;;19.00;69.60;;;;;;5052282;28;20049;-74
2021/08/31 05:43:05;;;;;;;7.63;6.25;;;19.00;69.60;;;;;;5052377;28;20394;-74
2021/08/31 05:45:34;;;;;;;7.43;5.95;;;19.10;69.60;;;;;;5052343;28;20098;-75
2021/08/31 05:47:59;;;;;;;7.95;4.97;;;19.10;69.40;;;;;;5052188;28;20029;-75
2021/08/31 05:50:25;;;;;;;6.90;4.78;;;19.10;69.50;;;;;;5034417;28;20040;-75
2021/08/31 05:52:51;;;;;;;9.27;6.00;;;19.10;69.10;;;;;;5051990;28;20067;-75
2021/08/31 05:55:17;;;;;;;6.25;4.47;;;19.10;69.00;;;;;;5052118;28;20402;-74
2021/08/31 05:57:44;;;;;;;7.28;5.07;;;19.10;69.20;;;;;;5030791;28;20036;-74
2021/08/31 06:00:11;;;;;;;6.07;5.07;;;19.20;69.40;;;;;;5018459;28;20028;-75
2021/08/31 06:02:42;;;;;;;6.18;5.00;;;19.20;69.10;;;;;;5051957;28;20025;-75
2021/08/31 06:05:09;;;;;;;7.00;5.03;;;19.20;69.10;;;;;;5052373;28;20044;-75
2021/08/31 06:07:35;;;;;;;9.13;5.55;;;19.20;68.90;;;;;;5051928;28;20382;-74
2021/08/31 06:10:04;;;;;;;5.20;4.65;;;19.30;68.80;;;;;;5051910;28;20021;-75
2021/08/31 06:12:30;;;;;;;6.65;5.18;;;19.30;69.80;;;;;;5052270;28;20438;-75
2021/08/31 06:14:56;;;;;;;8.25;5.50;;;19.40;69.80;;;;;;5051569;28;20053;-74
2021/08/31 06:17:22;;;;;;;6.18;5.18;;;19.40;68.80;;;;;;5052096;28;20029;-75
2021/08/31 06:19:49;;;;;;;5.95;4.82;;;19.50;68.60;;;;;;5053404;28;20048;-74
2021/08/31 06:22:15;;;;;;;5.57;4.93;;;19.60;69.30;;;;;;5051789;28;20021;-73
2021/08/31 06:24:41;;;;;;;4.97;4.00;;;19.60;68.50;;;;;;5051808;28;20056;-75
2021/08/31 06:27:07;;;;;;;7.25;5.95;;;19.70;68.40;;;;;;5033992;28;20060;-75
2021/08/31 06:29:33;;;;;;;8.05;5.43;;;19.80;67.40;;;;;;5051564;28;20099;-74
2021/08/31 06:31:59;;;;;;;7.18;5.50;;;19.80;67.00;;;;;;5051431;28;20029;-75
2021/08/31 06:34:25;;;;;;;6.85;5.68;;;19.80;66.90;;;;;;5049589;28;20033;-75
2021/08/31 06:36:50;;;;;;;6.28;4.65;;;19.90;66.70;;;;;;5052008;28;20021;-74
2021/08/31 06:39:16;;;;;;;5.03;4.50;;;19.90;67.10;;;;;;5051935;28;20021;-75
2021/08/31 06:41:42;;;;;;;6.22;5.28;;;20.00;67.20;;;;;;5051936;28;20061;-75
2021/08/31 06:44:08;;;;;;;9.77;6.22;;;20.00;66.40;;;;;;5049249;28;20494;-74
2021/08/31 06:46:34;;;;;;;8.57;5.50;;;20.00;66.20;;;;;;5036268;28;20029;-74
2021/08/31 06:49:00;;;;;;;8.40;5.57;;;20.00;66.60;;;;;;5051258;28;20112;-75
2021/08/31 06:51:26;;;;;;;6.68;5.00;;;20.00;66.20;;;;;;5052434;28;20040;-74
2021/08/31 06:53:51;;;;;;;6.75;5.07;;;20.10;66.00;;;;;;5051656;28;20478;-74
2021/08/31 06:56:20;;;;;;;6.78;5.13;;;20.10;66.60;;;;;;5048906;28;20476;-74
2021/08/31 06:58:47;;;;;;;8.93;5.03;;;20.20;66.30;;;;;;5031643;28;20029;-74
2021/08/31 07:01:13;;;;;;;6.25;5.03;;;20.20;66.00;;;;;;5048224;28;20021;-74
2021/08/31 07:03:38;;;;;;;6.43;5.15;;;20.20;65.20;;;;;;5032364;28;20066;-74
2021/08/31 07:06:04;;;;;;;5.75;5.00;;;20.30;65.30;;;;;;5049659;28;20375;-75
2021/08/31 07:08:30;;;;;;;9.02;5.43;;;20.30;65.80;;;;;;5051466;28;20041;-74
2021/08/31 07:10:56;;;;;;;6.30;5.40;;;20.40;65.60;;;;;;5051739;28;20475;-74
2021/08/31 07:13:23;;;;;;;7.65;5.32;;;20.40;64.90;;;;;;5051376;28;20104;-74
2021/08/31 07:15:50;;;;;;;6.50;5.68;;;20.50;64.70;;;;;;5051464;28;20518;-74
2021/08/31 07:18:15;;;;;;;8.27;5.30;;;20.50;64.80;;;;;;5051214;28;20498;-75
2021/08/31 07:20:43;;;;;;;10.82;5.85;;;20.50;64.90;;;;;;5046686;28;20021;-74
2021/08/31 07:23:08;;;;;;;6.57;5.70;;;20.50;64.70;;;;;;5055009;28;20033;-74
2021/08/31 07:25:34;;;;;;;6.38;5.30;;;20.60;64.30;;;;;;5053237;28;20109;-74
2021/08/31 07:28:00;;;;;;;8.70;5.80;;;20.60;63.60;;;;;;5054970;28;20083;-74
2021/08/31 07:30:26;;;;;;;6.35;5.15;;;20.60;63.40;;;;;;5054675;28;20099;-74
2021/08/31 07:32:52;;;;;;;7.43;5.18;;;20.60;63.70;;;;;;5053351;28;20090;-74
2021/08/31 07:35:17;;;;;;;7.15;4.70;;;20.70;64.00;;;;;;5053447;28;20492;-74
2021/08/31 07:37:43;;;;;;;6.43;5.38;;;20.80;64.10;;;;;;5053491;28;20079;-74
2021/08/31 07:40:09;;;;;;;5.97;5.25;;;20.90;63.10;;;;;;5054364;28;20036;-74
2021/08/31 07:42:36;;;;;;;7.57;4.50;;;20.90;63.10;;;;;;5036600;28;20428;-74
2021/08/31 07:45:05;;;;;;;5.28;4.78;;;21.00;63.20;;;;;;5036291;28;20437;-74
2021/08/31 07:47:32;;;;;;;5.10;4.50;;;21.00;62.50;;;;;;5051819;28;20075;-74
2021/08/31 07:49:58;;;;;;;5.30;4.65;;;21.00;62.10;;;;;;5054457;28;20057;-74
2021/08/31 07:52:25;;;;;;;5.70;4.25;;;21.00;62.40;;;;;;5054003;28;20091;-74
2021/08/31 07:54:51;;;;;;;5.63;4.38;;;21.00;62.30;;;;;;5052485;28;20056;-74
2021/08/31 07:57:17;;;;;;;7.93;4.40;;;21.00;62.50;;;;;;5046054;28;20045;-74
2021/08/31 07:59:42;;;;;;;4.60;3.50;;;20.90;61.80;;;;;;5055230;28;20021;-74
2021/08/31 08:02:09;;;;;;;5.85;4.38;;;20.90;62.70;;;;;;5037231;28;20501;-74
2021/08/31 08:04:34;;;;;;;4.70;4.22;;;20.90;62.50;;;;;;5055130;28;20064;-75
2021/08/31 08:07:00;;;;;;;6.07;4.50;;;20.80;62.10;;;;;;5054682;28;20060;-74
2021/08/31 08:09:26;;;;;;;5.95;4.50;;;20.70;62.10;;;;;;5054547;28;20104;-74
2021/08/31 08:11:52;;;;;;;8.00;3.85;;;20.70;62.50;;;;;;5054370;28;20379;-74
2021/08/31 08:14:18;;;;;;;7.10;4.40;;;20.70;62.90;;;;;;5042421;28;20056;-74
2021/08/31 08:20:43;;;;;;;4.95;4.25;;;20.60;62.20;;;;;;4966496;28;20552;-75
2021/08/31 08:23:23;;;;;;;4.57;4.03;;;20.50;62.70;;;;;;4971532;28;20143;-74
2021/08/31 08:25:49;;;;;;;5.55;3.40;;;20.50;62.80;;;;;;4973263;28;20027;-74
2021/08/31 08:28:16;;;;;;;4.35;3.95;;;20.50;63.60;;;;;;4973857;28;20532;-74
2021/08/31 08:30:42;;;;;;;4.68;3.92;;;20.60;63.80;;;;;;4973359;28;20051;-74
2021/08/31 08:33:07;;;;;;;3.72;3.20;;;20.60;63.20;;;;;;4973567;28;20037;-74
2021/08/31 08:35:33;;;;;;;4.32;2.95;;;20.70;64.20;;;;;;4973859;28;20027;-74
2021/08/31 08:37:59;;;;;;;3.20;2.90;;;20.80;64.30;;;;;;4973848;28;20023;-74
2021/08/31 08:40:26;;;;;;;3.50;3.20;;;20.90;64.00;;;;;;4973588;28;20034;-74
2021/08/31 08:42:52;;;;;;;9.02;3.60;;;21.00;63.40;;;;;;4973767;28;20452;-74
2021/08/31 08:45:19;;;;;;;5.00;2.90;;;21.10;64.20;;;;;;4973703;28;20031;-74
2021/08/31 08:47:45;;;;;;;5.13;3.30;;;21.10;64.40;;;;;;4973668;28;20078;-74
2021/08/31 08:50:13;;;;;;;4.47;2.85;;;21.20;64.40;;;;;;4962653;28;20030;-74
2021/08/31 08:52:39;;;;;;;5.88;3.20;;;21.10;66.20;;;;;;4992958;28;20041;-74
2021/08/31 08:55:09;;;;;;;4.97;3.35;;;21.10;65.90;;;;;;5001311;28;20030;-74
2021/08/31 08:57:35;;;;;;;3.97;2.92;;;21.00;64.70;;;;;;5074116;28;20025;-74
2021/08/31 09:00:01;;;;;;;3.00;2.70;;;20.90;64.60;;;;;;5074050;28;20070;-74
2021/08/31 09:02:38;;;;;;;5.25;3.22;;;20.80;65.40;;;;;;5074076;28;20033;-74
2021/08/31 09:05:06;;;;;;;3.22;2.85;;;20.80;65.80;;;;;;5074001;28;20074;-74
2021/08/31 09:07:38;;;;;;;4.20;2.90;;;20.70;65.80;;;;;;5073980;28;20021;-74
2021/08/31 09:10:17;;;;;;;3.92;2.80;;;20.70;65.90;;;;;;5073883;28;20112;-74
2021/08/31 09:12:49;;;;;;;3.70;3.25;;;20.70;66.10;;;;;;5053865;28;20490;-74
2021/08/31 09:15:39;;;;;;;4.60;3.08;;;20.70;65.90;;;;;;5035362;28;20021;-74
2021/08/31 09:18:05;;;;;;;3.35;2.83;;;20.60;66.10;;;;;;5043411;28;20102;-74
2021/08/31 09:20:38;;;;;;;4.55;3.05;;;20.70;66.40;;;;;;5052619;28;20024;-75
2021/08/31 09:23:05;;;;;;;3.22;2.92;;;20.70;66.60;;;;;;5053096;28;20031;-74
2021/08/31 09:25:52;;;;;;;3.42;2.83;;;20.70;66.10;;;;;;5051645;28;20037;-73
2021/08/31 09:28:22;;;;;;;3.92;2.88;;;20.70;66.20;;;;;;5053504;28;20078;-74
2021/08/31 09:31:05;;;;;;;3.65;3.10;;;20.70;66.60;;;;;;5053208;28;20048;-74
2021/08/31 09:33:52;;;;;;;5.43;3.33;;;20.70;66.00;;;;;;5053000;28;20425;-74
2021/08/31 09:36:20;;;;;;;4.28;3.00;;;20.70;65.70;;;;;;5053231;28;20235;-74
2021/08/31 09:39:01;;;;;;;6.90;3.67;;;20.70;66.00;;;;;;5053187;28;20017;-74
2021/08/31 09:41:35;;;;;;;8.75;3.65;;;20.60;66.00;;;;;;5053250;28;20021;-74
2021/08/31 09:44:11;;;;;;;10.20;3.60;;;20.60;65.80;;;;;;5052951;28;20078;-74
2021/08/31 09:47:01;;;;;;;5.32;3.33;;;20.60;66.00;;;;;;5053387;28;20029;-76
2021/08/31 09:49:28;;;;;;;5.43;3.50;;;20.50;66.30;;;;;;5032020;28;20376;-74
2021/08/31 09:52:08;;;;;;;4.55;3.20;;;20.60;66.40;;;;;;5044939;28;20386;-75
2021/08/31 09:54:46;;;;;;;6.07;3.63;;;20.50;67.20;;;;;;5053007;28;20543;-74
2021/08/31 09:57:32;;;;;;;4.63;3.08;;;20.50;66.70;;;;;;5053059;28;20040;-74
2021/08/31 10:00:00;;;;;;;3.35;3.05;;;20.50;66.90;;;;;;5052549;28;20021;-75
2021/08/31 10:02:26;;;;;;;4.55;3.40;;;20.50;67.20;;;;;;5034179;28;20100;-75
2021/08/31 10:04:54;;;;;;;5.93;3.30;;;20.50;67.30;;;;;;5052755;28;20027;-74
2021/08/31 10:07:22;;;;;;;3.65;3.08;;;20.50;67.50;;;;;;5052964;28;20025;-74
2021/08/31 10:09:49;;;;;;;4.05;3.10;;;20.60;67.50;;;;;;5055257;28;20078;-75
2021/08/31 10:12:18;;;;;;;4.55;3.47;;;20.60;67.80;;;;;;5054938;28;20047;-75
2021/08/31 10:14:45;;;;;;;4.43;3.25;;;20.60;68.10;;;;;;5057887;28;20091;-74
2021/08/31 10:17:12;;;;;;;3.45;2.97;;;20.70;68.30;;;;;;5052623;28;20028;-75
2021/08/31 10:19:42;;;;;;;6.40;3.53;;;20.70;68.40;;;;;;5032968;28;20025;-75
2021/08/31 10:22:10;;;;;;;7.50;4.18;;;20.70;68.20;;;;;;5048341;28;20525;-75
2021/08/31 10:24:37;;;;;;;4.72;3.80;;;20.70;67.60;;;;;;5052194;28;20055;-75
2021/08/31 10:27:27;;;;;;;7.82;4.00;;;20.70;67.40;;;;;;5051832;28;20037;-75
2021/08/31 10:30:19;;;;;;;5.57;3.33;;;20.70;67.60;;;;;;5032692;28;20049;-75
2021/08/31 10:32:54;;;;;;;3.85;3.03;;;20.70;67.60;;;;;;5032621;28;20025;-75
2021/08/31 10:35:32;;;;;;;4.43;2.92;;;20.60;67.80;;;;;;5014820;28;20455;-76
2021/08/31 10:38:02;;;;;;;5.03;3.60;;;20.70;68.40;;;;;;5033357;28;20028;-76
2021/08/31 10:40:41;;;;;;;5.22;3.25;;;20.70;68.30;;;;;;5034463;28;20018;-75
2021/08/31 10:43:11;;;;;;;4.30;2.97;;;20.80;68.40;;;;;;5052656;28;20031;-75
2021/08/31 10:45:39;;;;;;;3.72;2.80;;;20.90;67.70;;;;;;5052702;28;20494;-75
2021/08/31 10:48:23;;;;;;;3.50;2.22;;;20.90;67.60;;;;;;5052516;28;20040;-75
2021/08/31 10:51:05;;;;;;;4.70;2.25;;;21.00;65.20;;;;;;5034788;28;20374;-75
2021/08/31 10:53:39;;;;;;;2.20;1.98;;;21.00;65.40;;;;;;5052822;28;20385;-75
2021/08/31 10:56:20;;;;;;;5.70;2.33;;;20.90;64.70;;;;;;5038224;28;20024;-76
2021/08/31 10:58:47;;;;;;;4.05;2.20;;;20.80;64.70;;;;;;5056463;28;20017;-76
2021/08/31 11:01:16;;;;;;;2.50;1.80;;;20.70;63.60;;;;;;5056301;28;20051;-76
2021/08/31 11:03:42;;;;;;;2.47;2.00;;;20.70;65.00;;;;;;5056343;28;20048;-75
2021/08/31 11:06:18;;;;;;;2.58;2.25;;;20.70;65.00;;;;;;5056183;28;20029;-75
2021/08/31 11:09:11;;;;;;;2.67;1.83;;;20.70;66.00;;;;;;5038448;28;20108;-75
2021/08/31 11:11:38;;;;;;;4.03;2.28;;;20.80;66.00;;;;;;5034553;28;20037;-76
2021/08/31 11:14:05;;;;;;;14.05;2.30;;;21.00;65.90;;;;;;5056208;28;20021;-75
2021/08/31 11:16:37;;;;;;;3.47;2.13;;;21.00;63.50;;;;;;5056804;28;20032;-75
2021/08/31 11:19:05;;;;;;;5.03;2.50;;;21.10;63.50;;;;;;5056267;28;20417;-75
2021/08/31 11:21:46;;;;;;;5.10;2.17;;;21.10;63.10;;;;;;5056076;28;20474;-76
2021/08/31 11:24:12;;;;;;;4.97;2.08;;;21.00;62.80;;;;;;5038270;28;20500;-76
2021/08/31 11:26:37;;;;;;;8.18;2.13;;;21.00;63.40;;;;;;5055995;28;20028;-76
2021/08/31 11:29:09;;;;;;;4.68;2.00;;;21.10;63.20;;;;;;5055814;28;20037;-75
2021/08/31 11:31:35;;;;;;;3.90;1.98;;;21.10;63.10;;;;;;5055992;28;20107;-75
2021/08/31 11:34:00;;;;;;;3.88;2.03;;;21.20;63.50;;;;;;5055641;28;20078;-74
2021/08/31 11:36:30;;;;;;;5.05;2.20;;;21.20;63.90;;;;;;5055808;28;20021;-74
2021/08/31 11:39:01;;;;;;;3.58;2.13;;;21.30;62.50;;;;;;5055853;28;20029;-75
2021/08/31 11:41:39;;;;;;;7.45;2.08;;;21.30;61.50;;;;;;5055783;28;20017;-75
2021/08/31 11:44:16;;;;;;;3.35;1.83;;;21.40;62.00;;;;;;5037730;28;20025;-74
2021/08/31 11:46:47;;;;;;;4.00;2.17;;;21.40;61.60;;;;;;5055571;28;20025;-74
2021/08/31 11:49:17;;;;;;;8.13;2.58;;;21.50;61.80;;;;;;5037711;28;20390;-74
2021/08/31 11:52:01;;;;;;;9.50;1.83;;;21.60;61.70;;;;;;5033449;28;20040;-74
2021/08/31 11:54:29;;;;;;;3.90;1.90;;;21.70;61.70;;;;;;5053796;28;20029;-75
2021/08/31 11:56:58;;;;;;;4.43;1.80;;;21.80;60.90;;;;;;5053289;28;20041;-73
2021/08/31 11:59:43;;;;;;;2.65;1.75;;;21.80;60.60;;;;;;5054685;28;20109;-73
2021/08/31 12:02:17;;;;;;;2.63;1.52;;;21.80;60.20;;;;;;5037359;28;20071;-73
2021/08/31 12:04:46;;;;;;;5.20;1.90;;;21.90;60.30;;;;;;5037294;28;20036;-73
2021/08/31 12:07:16;;;;;;;1.55;1.45;;;21.90;59.90;;;;;;5054013;28;20035;-74
2021/08/31 12:09:43;;;;;;;6.28;1.55;;;21.80;59.90;;;;;;5055429;28;20405;-73
2021/08/31 12:12:10;;;;;;;1.58;1.30;;;21.80;60.20;;;;;;5055131;28;20051;-73
2021/08/31 12:14:37;;;;;;;2.70;1.55;;;21.80;60.70;;;;;;5054994;28;20032;-73
2021/08/31 12:17:03;;;;;;;1.10;0.93;;;21.90;61.60;;;;;;5055112;28;20442;-74
2021/08/31 12:19:30;;;;;;;1.65;1.27;;;22.10;62.40;;;;;;5055053;28;20092;-74
2021/08/31 12:22:13;;;;;;;3.15;1.48;;;22.20;62.40;;;;;;5037374;28;20041;-73
2021/08/31 12:24:42;;;;;;;1.20;1.10;;;22.50;62.80;;;;;;5054861;28;20025;-73
2021/08/31 12:27:19;;;;;;;3.78;1.67;;;22.70;61.90;;;;;;5054859;28;20027;-74
2021/08/31 12:29:56;;;;;;;4.90;1.55;;;22.90;59.40;;;;;;5033405;28;20132;-74
2021/08/31 12:32:30;;;;;;;4.85;1.70;;;23.10;60.90;;;;;;5035013;28;20486;-74
2021/08/31 12:35:22;;;;;;;1.45;1.20;;;23.20;60.00;;;;;;5034818;28;20101;-74
2021/08/31 12:38:03;;;;;;;1.90;1.30;;;23.30;59.50;;;;;;5034845;28;20060;-75
2021/08/31 12:40:29;;;;;;;1.92;1.58;;;23.50;59.00;;;;;;5034778;28;20018;-75
2021/08/31 12:43:04;;;;;;;2.58;1.60;;;23.60;57.50;;;;;;5034666;28;20101;-74
2021/08/31 12:45:30;;;;;;;3.05;1.55;;;23.70;59.30;;;;;;5034640;28;20017;-74
2021/08/31 12:47:58;;;;;;;2.20;1.65;;;23.80;57.90;;;;;;5034522;28;20018;-74
2021/08/31 12:50:26;;;;;;;2.38;1.58;;;23.80;57.30;;;;;;5033320;28;20075;-74
2021/08/31 12:53:07;;;;;;;4.28;1.70;;;23.90;57.90;;;;;;5034310;28;20025;-74
2021/08/31 12:55:34;;;;;;;2.40;1.42;;;24.00;56.90;;;;;;5032472;28;20044;-74
2021/08/31 12:58:26;;;;;;;2.90;1.75;;;24.20;57.30;;;;;;5034274;28;20017;-74